Data for 08/28/2010

Time Sea-Level Adjusted Pressure Absolute Pressure Temperature Relative Humidity Dew Point   
(mb) (inHg) (mb) (inHg) (C) (F) (%) (C) (F)
00:05 1012 29.88 841 24.83 14.3 57.7 64 7.5 45.6
00:10 1012 29.88 841 24.83 14.2 57.5 64 7.5 45.5
00:15 1012 29.88 841 24.83 14.1 57.5 64 7.5 45.4
00:20 1012 29.88 841 24.83 14.1 57.4 63 7.3 45.2
00:25 1012 29.88 841 24.83 14.1 57.3 64 7.5 45.5
00:30 1012 29.88 841 24.83 14 57.1 64 7.4 45.4
00:35 1012 29.88 841 24.83 13.9 57 65 7.5 45.5
00:40 1012 29.88 841 24.83 13.8 56.9 65 7.4 45.4
00:45 1012 29.88 841 24.83 13.9 57 65 7.5 45.5
00:50 1012 29.88 841 24.83 13.8 56.8 65 7.5 45.5
00:55 1012 29.88 841 24.83 13.7 56.6 65 7.4 45.2
01:00 1012 29.88 841 24.83 13.7 56.7 65 7.2 45
01:05 1012 29.88 841 24.83 13.7 56.7 65 7.3 45.2
01:10 1012 29.88 841 24.83 13.7 56.6 64 7 44.7
01:15 1012 29.88 841 24.83 13.7 56.6 63 6.8 44.2
01:20 1012 29.88 841 24.83 13.7 56.6 63 6.8 44.3
01:25 1012 29.88 841 24.83 13.6 56.4 64 7 44.6
01:30 1012 29.88 841 24.83 13.5 56.4 64 6.8 44.3
01:35 1012 29.88 841 24.83 13.3 55.9 65 6.9 44.5
01:40 1012 29.88 841 24.83 13 55.5 65 6.6 43.9
01:45 1012 29.88 841 24.83 13 55.4 65 6.6 43.9
01:50 1012 29.88 841 24.83 12.8 55 66 6.6 43.9
01:55 1012 29.88 841 24.83 12.6 54.8 67 6.6 43.9
02:00 1012 29.88 841 24.83 12.3 54.1 70 6.9 44.5
02:05 1012 29.88 841 24.83 11.4 52.6 71 6.3 43.4
02:10 1012 29.88 841 24.83 11.4 52.5 70 6.3 43.3
02:15 1012 29.88 841 24.83 11.5 52.8 69 6.1 43
02:20 1012 29.88 841 24.83 11.6 52.8 69 6.1 43.1
02:25 1012 29.88 841 24.83 11.5 52.7 70 6.2 43.2
02:30 1012 29.88 841 24.83 11.3 52.4 70 6.1 42.9
02:35 1012 29.88 841 24.83 11.4 52.5 68 5.7 42.3
02:40 1012 29.88 841 24.83 11.2 52.2 69 5.8 42.4
02:45 1012 29.88 841 24.83 10.9 51.7 71 6 42.8
02:50 1012 29.88 841 24.83 10.4 50.7 73 5.8 42.4
02:55 1012 29.88 841 24.83 10.4 50.8 72 5.6 42.2
03:00 1012 29.88 841 24.83 10.6 51.1 72 5.8 42.5
03:05 1012 29.88 841 24.83 10.4 50.7 74 5.9 42.6
03:10 1012 29.88 841 24.83 10.2 50.4 73 5.7 42.3
03:15 1012 29.88 841 24.83 10 50 73 5.4 41.8
03:20 1012 29.88 841 24.83 9.8 49.7 73 5.3 41.6
03:25 1012 29.88 841 24.83 9.6 49.4 74 5.3 41.5
03:30 1012 29.88 841 24.83 9.5 49.1 75 5.3 41.6
03:35 1012 29.88 841 24.83 9.5 49 75 5.3 41.5
03:40 1012 29.88 841 24.83 9.1 48.3 76 5 41.1
03:45 1012 29.88 841 24.83 9.1 48.3 72 4.4 39.8
03:50 1012 29.88 841 24.83 9 48.2 72 4.2 39.6
03:55 1012 29.88 841 24.83 9.2 48.6 67 3.4 38.1
04:00 1012 29.88 841 24.83 9.6 49.3 65 3.4 38.1
04:05 1011 29.85 841 24.83 9.6 49.2 64 3.1 37.6
04:10 1011 29.85 841 24.83 9.6 49.2 65 3.3 37.9
04:15 1011 29.85 840 24.81 9.6 49.3 65 3.3 37.9
04:20 1011 29.85 840 24.81 9.5 49 66 3.4 38.2
04:25 1011 29.85 840 24.81 9.3 48.8 68 3.7 38.6
04:30 1011 29.85 840 24.81 9.1 48.4 69 3.8 38.8
04:35 1011 29.85 840 24.81 9.1 48.4 69 3.8 38.8
04:40 1011 29.85 840 24.81 8.9 48 70 3.7 38.7
04:45 1011 29.85 840 24.81 8.6 47.5 72 3.9 38.9
04:50 1011 29.85 840 24.81 8.7 47.6 71 3.6 38.6
04:55 1011 29.85 840 24.81 9 48.1 68 3.5 38.3
05:00 1011 29.85 840 24.81 9.8 49.7 63 3.1 37.5
05:05 1011 29.85 840 24.81 10.3 50.5 61 3 37.4
05:10 1011 29.85 840 24.81 10.9 51.5 56 2.4 36.3
05:15 1011 29.85 840 24.81 11.4 52.5 53 2.3 36.1
05:20 1011 29.85 840 24.81 11.7 53.1 51 2.1 35.7
05:25 1011 29.85 840 24.81 11.7 53.1 51 2.1 35.8
05:30 1011 29.85 840 24.81 11.7 53 50 1.7 35.1
05:35 1011 29.85 840 24.81 11.7 53.1 49 1.6 34.8
05:40 1011 29.85 840 24.81 11.8 53.2 49 1.4 34.5
05:45 1011 29.85 840 24.81 11.8 53.2 48 1.2 34.2
05:50 1010 29.83 840 24.81 11.7 53 48 1.2 34.1
05:55 1010 29.83 840 24.81 11.6 52.8 48 1.1 33.9
06:00 1010 29.83 840 24.81 11.6 52.9 48 1 33.9
06:05 1011 29.85 840 24.81 11.5 52.7 49 1.1 34
06:10 1010 29.83 840 24.81 11.4 52.5 49 1 33.8
06:15 1010 29.83 840 24.81 11.2 52.1 60 3.7 38.6
06:20 1010 29.83 840 24.81 10.1 50.1 63 3.3 38
06:25 1010 29.83 840 24.81 9.6 49.3 65 3.3 38
06:30 1010 29.83 840 24.81 9.5 49.2 66 3.4 38.2
06:35 1010 29.83 840 24.81 9.4 49 66 3.3 38
06:40 1010 29.83 840 24.81 9.3 48.8 68 3.7 38.6
06:45 1010 29.83 840 24.81 9.2 48.5 71 4.2 39.5
06:50 1010 29.83 840 24.81 8.7 47.7 73 4.2 39.5
06:55 1010 29.83 840 24.81 8.5 47.2 74 4.1 39.3
07:00 1010 29.83 840 24.81 8.6 47.5 71 3.7 38.6
07:05 1010 29.83 840 24.81 8.8 47.8 70 3.7 38.6
07:10 1010 29.83 840 24.81 8.7 47.7 70 3.7 38.6
07:15 1010 29.83 840 24.81 8.7 47.6 72 4 39.2
07:20 1010 29.83 840 24.81 8.7 47.6 71 3.8 38.9
07:25 1010 29.83 840 24.81 8.5 47.3 74 4.2 39.5
07:30 1010 29.83 840 24.81 8.5 47.3 74 4.1 39.3
07:35 1010 29.83 840 24.81 8.7 47.7 72 4 39.1
07:40 1010 29.83 840 24.81 9.2 48.6 72 4.3 39.8
07:45 1010 29.83 840 24.81 8.9 48.1 74 4.6 40.4
07:50 1010 29.83 840 24.81 9.1 48.4 74 4.7 40.5
07:55 1010 29.83 840 24.81 9.2 48.5 73 4.6 40.3
08:00 1010 29.83 840 24.81 9.9 49.8 69 4.6 40.2
08:05 1011 29.85 840 24.81 10.1 50.1 69 4.7 40.4
08:10 1011 29.85 840 24.81 10.6 51.1 66 4.5 40.1
08:15 1011 29.85 840 24.81 11.4 52.4 61 4.1 39.4
08:20 1011 29.85 840 24.81 11.7 53 57 3.5 38.3
08:25 1010 29.83 840 24.81 12.3 54.1 53 2.9 37.2
08:30 1010 29.83 840 24.81 12.9 55.2 49 2.6 36.6
08:35 1010 29.83 840 24.81 12.9 55.2 51 3 37.3
08:40 1010 29.83 839 24.78 12.9 55.3 51 3.2 37.7
08:45 1010 29.83 839 24.78 13.4 56.1 50 3.2 37.7
08:50 1010 29.83 839 24.78 12.8 55.1 52 3.2 37.8
08:55 1010 29.83 839 24.78 12.8 55 52 3.3 37.9
09:00 1010 29.83 839 24.78 13.3 55.9 50 3.1 37.6
09:05 1010 29.83 839 24.78 13.3 55.9 46 2.1 35.8
09:10 1010 29.83 839 24.78 13 55.4 48 2.4 36.2
09:15 1010 29.83 840 24.81 12.7 54.8 48 2 35.5
09:20 1010 29.83 839 24.78 12.5 54.6 50 2.5 36.4
09:25 1010 29.83 839 24.78 11.9 53.5 54 3 37.4
09:30 1010 29.83 839 24.78 11.9 53.5 55 3.1 37.7
09:35 1010 29.83 839 24.78 12.3 54.1 56 3.9 39.1
09:40 1010 29.83 839 24.78 12.9 55.2 46 1.8 35.2
09:45 1010 29.83 839 24.78 13.7 56.6 45 2.1 35.8
09:50 1010 29.83 839 24.78 14.7 58.5 43 2.3 36.1
09:55 1010 29.83 839 24.78 14.7 58.5 44 2.7 36.8
10:00 1010 29.83 839 24.78 14.6 58.2 43 2.1 35.9
10:05 1010 29.83 839 24.78 15 58.9 42 2.2 36
10:10 1009 29.8 839 24.78 14.7 58.5 44 2.7 36.9
10:15 1009 29.8 839 24.78 14.3 57.7 43 2.1 35.8
10:20 1010 29.83 839 24.78 14.1 57.4 44 2 35.6
10:25 1010 29.83 839 24.78 13.9 57 43 1.8 35.2
10:30 1009 29.8 839 24.78 13.9 57 45 2.2 35.9
10:35 1010 29.83 839 24.78 13.6 56.4 45 2 35.7
10:40 1010 29.83 839 24.78 13.3 56 48 2.6 36.7
10:45 1010 29.83 839 24.78 13.2 55.7 47 2.2 35.9
10:50 1010 29.83 839 24.78 13.4 56 45 1.9 35.4
10:55 1010 29.83 839 24.78 13.3 56 48 2.6 36.6
11:00 1010 29.83 839 24.78 13.3 55.9 47 2.2 36
11:05 1010 29.83 839 24.78 14 57.3 44 2 35.7
11:10 1009 29.8 839 24.78 14.1 57.4 43 1.8 35.2
11:15 1009 29.8 839 24.78 13.6 56.5 43 1.2 34.2
11:20 1009 29.8 838 24.75 14.3 57.7 42 1.6 34.9
11:25 1009 29.8 838 24.75 13.7 56.6 44 1.8 35.2
11:30 1009 29.8 838 24.75 14 57.2 44 2 35.6
11:35 1009 29.8 838 24.75 13.9 56.9 41 0.8 33.5
11:40 1009 29.8 838 24.75 14.2 57.5 41 1.3 34.4
11:45 1009 29.8 839 24.78 14.3 57.7 43 2 35.6
11:50 1010 29.83 839 24.78 13.9 57 44 2 35.6
11:55 1010 29.83 839 24.78 13.7 56.6 47 2.5 36.6
12:00 1011 29.85 840 24.81 13.4 56.1 47 2.3 36.1
12:05 1011 29.85 841 24.83 12.7 54.8 51 2.9 37.1
12:10 1011 29.85 840 24.81 11.8 53.3 60 4.5 40.1
12:15 1011 29.85 840 24.81 10.1 50.1 71 5.1 41.1
12:20 1010 29.83 839 24.78 9.5 49.2 69 4.2 39.6
12:25 1010 29.83 839 24.78 9.2 48.5 79 5.8 42.5
12:30 1010 29.83 839 24.78 8.7 47.7 79 5.2 41.4
12:35 1010 29.83 839 24.78 8.9 48 75 4.8 40.6
12:40 1010 29.83 839 24.78 9 48.2 77 5.2 41.4
12:45 1010 29.83 839 24.78 9.3 48.7 79 5.9 42.6
12:50 1009 29.8 838 24.75 9.6 49.3 80 6.4 43.5
12:55 1009 29.8 838 24.75 10.2 50.4 82 7.4 45.3
13:00 1009 29.8 838 24.75 10.9 51.6 77 7 44.6
13:05 1009 29.8 838 24.75 11.6 52.8 68 5.9 42.7
13:10 1008 29.77 838 24.75 11.8 53.2 72 7 44.6
13:15 1008 29.77 837 24.72 12.2 54 71 7.1 44.7
13:20 1008 29.77 837 24.72 12.9 55.2 69 7.3 45.1
13:25 1008 29.77 837 24.72 13.2 55.7 64 6.6 44
13:30 1008 29.77 837 24.72 13 55.5 70 7.7 45.9
13:35 1008 29.77 837 24.72 12.7 54.8 69 7.3 45.1
13:40 1007 29.74 837 24.72 12.3 54.1 72 7.5 45.5
13:45 1007 29.74 837 24.72 12.3 54.1 74 7.8 46.1
13:50 1007 29.74 837 24.72 12.3 54.1 74 7.8 46
13:55 1008 29.77 837 24.72 12.2 54 77 8.4 47.1
14:00 1008 29.77 837 24.72 12.1 53.7 74 7.7 45.8
14:05 1008 29.77 837 24.72 12 53.6 74 7.5 45.6
14:10 1008 29.77 837 24.72 11.9 53.4 75 7.7 45.8
14:15 1008 29.77 837 24.72 11.9 53.5 73 7.2 45
14:20 1008 29.77 837 24.72 11.9 53.3 76 7.9 46.2
14:25 1008 29.77 837 24.72 11.7 53.1 77 7.9 46.2
14:30 1007 29.74 837 24.72 11.7 53 80 8.3 46.9
14:35 1007 29.74 836 24.69 11.8 53.3 79 8.2 46.8
14:40 1007 29.74 836 24.69 11.7 53.1 79 8.2 46.8
14:45 1007 29.74 837 24.72 11.8 53.2 80 8.4 47.1
14:50 1008 29.77 837 24.72 12 53.6 78 8.2 46.8
14:55 1008 29.77 837 24.72 11.9 53.5 81 8.9 48
15:00 1008 29.77 837 24.72 11.7 53.1 81 8.6 47.4
15:05 1008 29.77 837 24.72 11.3 52.4 80 7.9 46.3
15:10 1008 29.77 837 24.72 10.8 51.4 83 8 46.3
15:15 1008 29.77 837 24.72 10.6 51.2 83 7.9 46.2
15:20 1008 29.77 837 24.72 10.5 50.9 81 7.4 45.4
15:25 1008 29.77 837 24.72 10.5 50.9 83 7.7 45.9
15:30 1008 29.77 837 24.72 10.8 51.4 82 7.9 46.2
15:35 1008 29.77 837 24.72 11 51.9 82 8.2 46.7
15:40 1008 29.77 837 24.72 11.2 52.1 83 8.4 47.1
15:45 1009 29.8 838 24.75 11.1 51.9 80 7.7 45.8
15:50 1009 29.8 838 24.75 10.9 51.5 76 6.8 44.3
15:55 1009 29.8 838 24.75 10.7 51.2 74 6.2 43.1
16:00 1009 29.8 838 24.75 10.7 51.2 72 5.8 42.5
16:05 1009 29.8 839 24.78 10.8 51.5 70 5.7 42.2
16:10 1009 29.8 838 24.75 10.6 51 72 5.9 42.5
16:15 1009 29.8 838 24.75 10.1 50.2 76 6.1 42.9
16:20 1009 29.8 838 24.75 10 49.9 77 6 42.9
16:25 1009 29.8 838 24.75 10 50 75 5.9 42.6
16:30 1009 29.8 838 24.75 10.2 50.3 75 6 42.8
16:35 1009 29.8 838 24.75 10.5 50.8 73 5.9 42.7
16:40 1009 29.8 838 24.75 10.5 51 73 5.9 42.6
16:45 1009 29.8 838 24.75 10.4 50.7 74 5.9 42.7
16:50 1009 29.8 838 24.75 10.4 50.6 74 6 42.7
16:55 1008 29.77 838 24.75 10.3 50.6 75 6 42.9
17:00 1009 29.8 838 24.75 10.4 50.6 77 6.4 43.6
17:05 1008 29.77 838 24.75 10.4 50.7 77 6.6 43.9
17:10 1008 29.77 837 24.72 10.2 50.3 80 6.9 44.4
17:15 1008 29.77 837 24.72 10.2 50.3 82 7.2 44.9
17:20 1008 29.77 837 24.72 10.2 50.3 82 7.2 45
17:25 1008 29.77 837 24.72 10.2 50.3 82 7.3 45.1
17:30 1008 29.77 837 24.72 10.2 50.4 84 7.6 45.7
17:35 1008 29.77 837 24.72 10.4 50.8 82 7.6 45.6
17:40 1008 29.77 837 24.72 10.7 51.2 79 7.2 45
17:45 1008 29.77 837 24.72 11 51.8 79 7.5 45.5
17:50 1008 29.77 837 24.72 11 51.7 81 7.9 46.2
17:55 1008 29.77 837 24.72 10.9 51.6 80 7.7 45.8
18:00 1008 29.77 837 24.72 11 51.8 81 7.9 46.2
18:05 1008 29.77 837 24.72 11.1 51.9 80 7.8 46
18:10 1007 29.74 837 24.72 11.1 52.1 81 8 46.4
18:15 1007 29.74 836 24.69 11.2 52.1 81 8.1 46.6
18:20 1007 29.74 837 24.72 11.2 52.1 82 8.3 46.9
18:25 1008 29.77 837 24.72 11 51.8 84 8.4 47.2
18:30 1008 29.77 837 24.72 10.9 51.7 84 8.3 47
18:35 1008 29.77 837 24.72 10.8 51.4 85 8.4 47
18:40 1008 29.77 837 24.72 10.7 51.2 85 8.3 47
18:45 1008 29.77 837 24.72 10.6 51.2 86 8.3 47
18:50 1008 29.77 837 24.72 10.5 50.8 87 8.4 47.1
18:55 1008 29.77 838 24.75 10.2 50.3 89 8.4 47.2
19:00 1008 29.77 837 24.72 9.8 49.7 91 8.4 47.1
19:05 1008 29.77 838 24.75 9.7 49.5 91 8.3 46.9
19:10 1008 29.77 838 24.75 9.7 49.5 91 8.3 47
19:15 1008 29.77 838 24.75 9.7 49.4 91 8.3 47
19:20 1008 29.77 838 24.75 9.7 49.4 91 8.3 46.9
19:25 1008 29.77 838 24.75 9.4 49 93 8.3 46.9
19:30 1008 29.77 838 24.75 9.1 48.3 94 8.2 46.7
19:35 1008 29.77 838 24.75 8.9 47.9 95 8.1 46.6
19:40 1008 29.77 838 24.75 8.8 47.9 96 8.2 46.7
19:45 1008 29.77 837 24.72 8.7 47.7 96 8.1 46.5
19:50 1008 29.77 837 24.72 8.6 47.6 96 8 46.4
19:55 1008 29.77 838 24.75 8.7 47.6 96 8.1 46.6
20:00 1008 29.77 838 24.75 8.7 47.7 96 8.1 46.6
20:05 1008 29.77 837 24.72 8.8 47.9 96 8.3 46.9
20:10 1008 29.77 837 24.72 8.9 48 96 8.3 46.9
20:15 1008 29.77 837 24.72 8.8 47.8 96 8.2 46.7
20:20 1008 29.77 837 24.72 8.8 47.8 96 8.2 46.7
20:25 1008 29.77 837 24.72 9 48.1 96 8.3 47
20:30 1008 29.77 837 24.72 9 48.3 96 8.4 47.1
20:35 1008 29.77 837 24.72 9.1 48.3 95 8.3 47
20:40 1008 29.77 837 24.72 9.1 48.4 95 8.3 47
20:45 1008 29.77 837 24.72 9.3 48.7 93 8.2 46.8
20:50 1008 29.77 837 24.72 10.1 50.1 87 8 46.4
20:55 1008 29.77 837 24.72 10.7 51.2 85 8.2 46.8
21:00 1008 29.77 837 24.72 10.9 51.6 83 8.1 46.6
21:05 1008 29.77 838 24.75 11 51.8 84 8.4 47.1
21:10 1009 29.8 838 24.75 10.6 51.1 89 8.8 47.9
21:15 1009 29.8 838 24.75 10.3 50.5 90 8.8 47.8
21:20 1009 29.8 838 24.75 10.2 50.3 90 8.6 47.5
21:25 1009 29.8 838 24.75 10.2 50.4 90 8.6 47.4
21:30 1009 29.8 838 24.75 10.3 50.5 90 8.7 47.7
21:35 1008 29.77 837 24.72 10.1 50.2 91 8.7 47.6
21:40 1008 29.77 837 24.72 10.1 50.1 92 8.8 47.9
21:45 1008 29.77 838 24.75 10.1 50.1 91 8.6 47.5
21:50 1009 29.8 838 24.75 10.2 50.4 91 8.7 47.7
21:55 1009 29.8 838 24.75 10.3 50.5 90 8.7 47.7
22:00 1009 29.8 838 24.75 10.3 50.6 90 8.7 47.7
22:05 1009 29.8 838 24.75 10.3 50.5 91 8.8 47.9
22:10 1009 29.8 838 24.75 10.2 50.3 91 8.7 47.7
22:15 1009 29.8 838 24.75 10.2 50.3 90 8.6 47.4
22:20 1009 29.8 838 24.75 10.3 50.5 88 8.4 47
22:25 1009 29.8 838 24.75 10.3 50.5 88 8.4 47.2
22:30 1009 29.8 838 24.75 10.2 50.4 89 8.5 47.3
22:35 1009 29.8 838 24.75 10.3 50.6 87 8.3 47
22:40 1009 29.8 838 24.75 10.2 50.4 89 8.5 47.3
22:45 1009 29.8 838 24.75 10 50 90 8.5 47.3
22:50 1009 29.8 838 24.75 9.9 49.8 90 8.4 47.1
22:55 1009 29.8 838 24.75 9.9 49.8 90 8.3 46.9
23:00 1009 29.8 838 24.75 9.9 49.9 90 8.3 47
23:05 1009 29.8 839 24.78 10 49.9 90 8.4 47
23:10 1009 29.8 839 24.78 9.6 49.3 93 8.6 47.4
23:15 1010 29.83 839 24.78 9.2 48.6 95 8.5 47.3
23:20 1010 29.83 839 24.78 9.1 48.3 96 8.4 47.1
23:25 1010 29.83 839 24.78 9 48.2 96 8.4 47.2
23:30 1010 29.83 839 24.78 9 48.2 96 8.5 47.2
23:35 1010 29.83 839 24.78 8.9 48.1 97 8.4 47.1
23:40 1010 29.83 839 24.78 8.9 48.1 97 8.4 47.2
23:45 1010 29.83 839 24.78 8.9 48 97 8.4 47.2
23:50 1010 29.83 839 24.78 8.9 47.9 97 8.4 47.1
23:55 1010 29.83 839 24.78 8.8 47.8 97 8.3 46.9
24:00 1010 29.83 839 24.78 8.8 47.9 97 8.3 47